sensor_id;sensor_type;location;lat;lon;timestamp;pressure;altitude;pressure_sealevel;temperature;humidity
9740;BME280;4909;42.680;26.324;2024-03-23T00:54:08;98741.69;;;7.91;64.35
9740;BME280;4909;42.680;26.324;2024-03-23T00:56:35;98715.56;;;7.82;63.05
9740;BME280;4909;42.680;26.324;2024-03-23T00:59:01;98738.16;;;7.92;63.36
9740;BME280;4909;42.680;26.324;2024-03-23T01:01:28;98728.34;;;7.68;64.52
9740;BME280;4909;42.680;26.324;2024-03-23T01:03:54;98727.94;;;7.80;65.17
9740;BME280;4909;42.680;26.324;2024-03-23T01:06:21;98727.03;;;7.81;64.22
9740;BME280;4909;42.680;26.324;2024-03-23T01:08:49;98726.75;;;7.62;64.34
9740;BME280;4909;42.680;26.324;2024-03-23T01:11:16;98719.25;;;7.50;64.76
9740;BME280;4909;42.680;26.324;2024-03-23T01:13:42;98713.66;;;7.59;64.64
9740;BME280;4909;42.680;26.324;2024-03-23T01:16:08;98721.88;;;7.50;66.12
9740;BME280;4909;42.680;26.324;2024-03-23T01:18:34;98717.78;;;7.40;66.55
9740;BME280;4909;42.680;26.324;2024-03-23T01:21:01;98722.63;;;7.54;66.25
9740;BME280;4909;42.680;26.324;2024-03-23T01:23:28;98721.63;;;7.58;65.61
9740;BME280;4909;42.680;26.324;2024-03-23T01:25:56;98691.38;;;7.40;66.14
9740;BME280;4909;42.680;26.324;2024-03-23T01:28:23;98710.81;;;7.65;65.09
9740;BME280;4909;42.680;26.324;2024-03-23T01:30:49;98712.03;;;7.83;64.72
9740;BME280;4909;42.680;26.324;2024-03-23T01:33:16;98714.66;;;7.83;64.21
9740;BME280;4909;42.680;26.324;2024-03-23T01:35:42;98675.19;;;7.51;64.45
9740;BME280;4909;42.680;26.324;2024-03-23T01:38:09;98707.94;;;7.73;64.26
9740;BME280;4909;42.680;26.324;2024-03-23T01:40:35;98705.38;;;7.70;66.13
9740;BME280;4909;42.680;26.324;2024-03-23T01:43:05;98712.25;;;7.48;66.58
9740;BME280;4909;42.680;26.324;2024-03-23T01:45:31;98714.00;;;7.49;65.41
9740;BME280;4909;42.680;26.324;2024-03-23T01:47:58;98710.81;;;7.65;65.05
9740;BME280;4909;42.680;26.324;2024-03-23T01:50:25;98713.81;;;7.55;65.67
9740;BME280;4909;42.680;26.324;2024-03-23T01:52:52;98704.22;;;7.51;66.81
9740;BME280;4909;42.680;26.324;2024-03-23T01:55:19;98703.97;;;7.60;65.56
9740;BME280;4909;42.680;26.324;2024-03-23T01:57:46;98709.31;;;7.57;65.71
9740;BME280;4909;42.680;26.324;2024-03-23T02:00:14;98715.47;;;7.57;66.14
9740;BME280;4909;42.680;26.324;2024-03-23T02:02:42;98712.63;;;7.65;65.49
9740;BME280;4909;42.680;26.324;2024-03-23T02:05:09;98712.53;;;7.66;64.90
9740;BME280;4909;42.680;26.324;2024-03-23T02:07:37;98715.63;;;7.23;66.29
9740;BME280;4909;42.680;26.324;2024-03-23T02:10:04;98668.13;;;6.94;66.99
9740;BME280;4909;42.680;26.324;2024-03-23T02:12:31;98712.53;;;7.38;66.55
9740;BME280;4909;42.680;26.324;2024-03-23T02:14:57;98713.31;;;7.42;66.23
9740;BME280;4909;42.680;26.324;2024-03-23T02:17:25;98710.44;;;7.50;66.34
9740;BME280;4909;42.680;26.324;2024-03-23T02:19:51;98712.84;;;7.57;65.46
9740;BME280;4909;42.680;26.324;2024-03-23T02:22:18;98714.56;;;7.58;65.44
9740;BME280;4909;42.680;26.324;2024-03-23T02:24:45;98712.88;;;7.56;65.91
9740;BME280;4909;42.680;26.324;2024-03-23T02:27:12;98715.88;;;7.73;64.62
9740;BME280;4909;42.680;26.324;2024-03-23T02:29:38;98644.91;;;7.34;65.10
9740;BME280;4909;42.680;26.324;2024-03-23T02:32:06;98718.34;;;7.77;64.93
9740;BME280;4909;42.680;26.324;2024-03-23T02:34:34;98711.75;;;7.64;65.45
9740;BME280;4909;42.680;26.324;2024-03-23T02:37:01;98715.47;;;7.57;66.20
9740;BME280;4909;42.680;26.324;2024-03-23T02:39:27;98720.13;;;7.77;65.01
9740;BME280;4909;42.680;26.324;2024-03-23T02:41:55;98719.50;;;7.41;66.90
9740;BME280;4909;42.680;26.324;2024-03-23T02:44:21;98714.13;;;7.44;67.77
9740;BME280;4909;42.680;26.324;2024-03-23T02:46:48;98725.09;;;7.60;66.14
9740;BME280;4909;42.680;26.324;2024-03-23T02:49:14;98723.28;;;7.60;65.84
9740;BME280;4909;42.680;26.324;2024-03-23T02:51:41;98716.63;;;7.49;67.06
9740;BME280;4909;42.680;26.324;2024-03-23T02:54:07;98718.72;;;7.65;66.04
9740;BME280;4909;42.680;26.324;2024-03-23T02:56:34;98723.53;;;7.80;65.05
9740;BME280;4909;42.680;26.324;2024-03-23T02:59:02;98706.25;;;7.70;65.34
9740;BME280;4909;42.680;26.324;2024-03-23T03:01:29;98716.72;;;7.46;67.17
9740;BME280;4909;42.680;26.324;2024-03-23T03:03:55;98721.81;;;7.52;66.45
9740;BME280;4909;42.680;26.324;2024-03-23T03:06:25;98711.25;;;7.22;68.35
9740;BME280;4909;42.680;26.324;2024-03-23T03:08:51;98721.91;;;7.49;67.45
9740;BME280;4909;42.680;26.324;2024-03-23T03:11:18;98713.09;;;7.50;66.43
9740;BME280;4909;42.680;26.324;2024-03-23T03:13:44;98711.16;;;7.55;66.17
9740;BME280;4909;42.680;26.324;2024-03-23T03:16:12;98715.19;;;7.09;68.50
9740;BME280;4909;42.680;26.324;2024-03-23T03:18:38;98708.44;;;6.99;68.66
9740;BME280;4909;42.680;26.324;2024-03-23T03:21:05;98706.94;;;6.90;68.96
9740;BME280;4909;42.680;26.324;2024-03-23T03:23:36;98714.09;;;7.16;68.26
9740;BME280;4909;42.680;26.324;2024-03-23T03:26:04;98705.63;;;7.34;67.28
9740;BME280;4909;42.680;26.324;2024-03-23T03:28:31;98705.59;;;7.07;68.37
9740;BME280;4909;42.680;26.324;2024-03-23T03:30:58;98680.50;;;6.63;70.20
9740;BME280;4909;42.680;26.324;2024-03-23T03:33:26;98706.09;;;6.88;69.56
9740;BME280;4909;42.680;26.324;2024-03-23T03:35:53;98709.06;;;7.07;69.17
9740;BME280;4909;42.680;26.324;2024-03-23T03:38:19;98710.34;;;7.23;68.01
9740;BME280;4909;42.680;26.324;2024-03-23T03:40:46;98704.81;;;7.32;67.43
9740;BME280;4909;42.680;26.324;2024-03-23T03:43:12;98708.84;;;7.16;68.10
9740;BME280;4909;42.680;26.324;2024-03-23T03:45:39;98640.09;;;6.61;68.41
9740;BME280;4909;42.680;26.324;2024-03-23T03:48:06;98700.69;;;6.93;69.14
9740;BME280;4909;42.680;26.324;2024-03-23T03:50:34;98712.72;;;7.03;68.59
9740;BME280;4909;42.680;26.324;2024-03-23T03:53:00;98714.72;;;7.24;67.50
9740;BME280;4909;42.680;26.324;2024-03-23T03:55:27;98716.97;;;7.09;68.20
9740;BME280;4909;42.680;26.324;2024-03-23T03:57:53;98716.34;;;6.99;68.87
9740;BME280;4909;42.680;26.324;2024-03-23T04:00:20;98712.91;;;6.97;69.15
9740;BME280;4909;42.680;26.324;2024-03-23T04:02:46;98713.09;;;6.91;70.91
9740;BME280;4909;42.680;26.324;2024-03-23T04:05:13;98710.63;;;6.85;69.97
9740;BME280;4909;42.680;26.324;2024-03-23T04:07:42;98718.88;;;7.04;69.41
9740;BME280;4909;42.680;26.324;2024-03-23T04:10:09;98714.03;;;7.18;68.64
9740;BME280;4909;42.680;26.324;2024-03-23T04:12:35;98717.38;;;7.24;68.44
9740;BME280;4909;42.680;26.324;2024-03-23T04:15:02;98704.75;;;7.05;68.98
9740;BME280;4909;42.680;26.324;2024-03-23T04:17:30;98687.22;;;7.02;69.03
9740;BME280;4909;42.680;26.324;2024-03-23T04:19:59;98710.94;;;7.33;67.78
9740;BME280;4909;42.680;26.324;2024-03-23T04:22:26;98701.84;;;7.14;68.91
9740;BME280;4909;42.680;26.324;2024-03-23T04:24:55;98715.44;;;7.31;68.14
9740;BME280;4909;42.680;26.324;2024-03-23T04:27:21;98710.22;;;7.28;68.16
9740;BME280;4909;42.680;26.324;2024-03-23T04:29:49;98713.38;;;7.40;67.30
9740;BME280;4909;42.680;26.324;2024-03-23T04:32:15;98706.28;;;7.12;69.40
9740;BME280;4909;42.680;26.324;2024-03-23T04:34:43;98706.88;;;7.21;67.91
9740;BME280;4909;42.680;26.324;2024-03-23T04:37:09;98676.63;;;7.04;67.34
9740;BME280;4909;42.680;26.324;2024-03-23T04:39:36;98720.56;;;7.35;67.63
9740;BME280;4909;42.680;26.324;2024-03-23T04:42:05;98711.25;;;7.22;67.13
9740;BME280;4909;42.680;26.324;2024-03-23T04:44:32;98708.47;;;6.97;68.87
9740;BME280;4909;42.680;26.324;2024-03-23T04:47:00;98690.84;;;6.99;68.91
9740;BME280;4909;42.680;26.324;2024-03-23T04:49:27;98710.22;;;7.28;67.78
9740;BME280;4909;42.680;26.324;2024-03-23T04:51:54;98707.38;;;7.35;68.08
9740;BME280;4909;42.680;26.324;2024-03-23T04:54:20;98707.59;;;7.56;67.31
9740;BME280;4909;42.680;26.324;2024-03-23T04:56:47;98703.31;;;7.52;67.21
9740;BME280;4909;42.680;26.324;2024-03-23T04:59:14;98708.84;;;7.44;67.09
9740;BME280;4909;42.680;26.324;2024-03-23T05:01:41;98683.22;;;7.48;66.79
9740;BME280;4909;42.680;26.324;2024-03-23T05:04:08;98718.63;;;7.96;66.32
9740;BME280;4909;42.680;26.324;2024-03-23T05:06:34;98722.50;;;8.12;64.93
9740;BME280;4909;42.680;26.324;2024-03-23T05:09:01;98716.72;;;8.27;64.14
9740;BME280;4909;42.680;26.324;2024-03-23T05:11:31;98717.53;;;8.29;63.19
9740;BME280;4909;42.680;26.324;2024-03-23T05:13:57;98716.34;;;8.38;63.35
9740;BME280;4909;42.680;26.324;2024-03-23T05:16:26;98714.09;;;8.52;62.41
9740;BME280;4909;42.680;26.324;2024-03-23T05:18:52;98722.81;;;8.56;61.72
9740;BME280;4909;42.680;26.324;2024-03-23T05:21:19;98715.81;;;8.53;62.28
9740;BME280;4909;42.680;26.324;2024-03-23T05:23:45;98723.91;;;8.49;62.73
9740;BME280;4909;42.680;26.324;2024-03-23T05:26:12;98720.19;;;8.54;61.58
9740;BME280;4909;42.680;26.324;2024-03-23T05:28:37;98714.50;;;8.66;61.27
9740;BME280;4909;42.680;26.324;2024-03-23T05:31:04;98723.41;;;8.87;61.85
9740;BME280;4909;42.680;26.324;2024-03-23T05:33:32;98728.63;;;8.90;60.74
9740;BME280;4909;42.680;26.324;2024-03-23T05:36:01;98715.50;;;8.62;61.99
9740;BME280;4909;42.680;26.324;2024-03-23T05:38:27;98733.59;;;8.50;62.24
9740;BME280;4909;42.680;26.324;2024-03-23T05:40:54;98738.03;;;8.74;62.13
9740;BME280;4909;42.680;26.324;2024-03-23T05:43:21;98736.69;;;9.10;61.36
9740;BME280;4909;42.680;26.324;2024-03-23T05:45:53;98731.56;;;9.06;61.78
9740;BME280;4909;42.680;26.324;2024-03-23T05:48:19;98739.78;;;8.98;61.41
9740;BME280;4909;42.680;26.324;2024-03-23T05:50:48;98736.81;;;9.07;60.58
9740;BME280;4909;42.680;26.324;2024-03-23T05:53:15;98747.59;;;9.01;60.21
9740;BME280;4909;42.680;26.324;2024-03-23T05:55:42;98734.44;;;9.23;59.57
9740;BME280;4909;42.680;26.324;2024-03-23T05:58:08;98745.38;;;9.14;59.98
9740;BME280;4909;42.680;26.324;2024-03-23T06:00:35;98728.63;;;9.13;58.95
9740;BME280;4909;42.680;26.324;2024-03-23T06:03:01;98739.63;;;9.26;59.35
9740;BME280;4909;42.680;26.324;2024-03-23T06:05:28;98733.47;;;9.26;59.14
9740;BME280;4909;42.680;26.324;2024-03-23T06:07:56;98743.78;;;10.00;58.70
9740;BME280;4909;42.680;26.324;2024-03-23T06:10:23;98737.22;;;11.69;52.05
9740;BME280;4909;42.680;26.324;2024-03-23T06:12:49;98743.41;;;13.60;45.56
9740;BME280;4909;42.680;26.324;2024-03-23T06:15:17;98744.19;;;15.43;40.96
9740;BME280;4909;42.680;26.324;2024-03-23T06:17:43;98742.00;;;16.72;37.36
9740;BME280;4909;42.680;26.324;2024-03-23T06:20:10;98733.59;;;17.67;34.74
9740;BME280;4909;42.680;26.324;2024-03-23T06:22:36;98744.78;;;17.97;33.90
9740;BME280;4909;42.680;26.324;2024-03-23T06:25:05;98743.66;;;18.36;33.17
9740;BME280;4909;42.680;26.324;2024-03-23T06:27:31;98737.47;;;18.59;33.22
9740;BME280;4909;42.680;26.324;2024-03-23T06:29:59;98733.25;;;18.79;33.14
9740;BME280;4909;42.680;26.324;2024-03-23T06:32:25;98737.97;;;19.79;30.97
9740;BME280;4909;42.680;26.324;2024-03-23T06:34:52;98735.63;;;20.82;28.80
9740;BME280;4909;42.680;26.324;2024-03-23T06:37:18;98734.88;;;21.12;27.86
9740;BME280;4909;42.680;26.324;2024-03-23T06:39:46;98734.13;;;21.73;27.52
9740;BME280;4909;42.680;26.324;2024-03-23T06:42:13;98737.56;;;22.15;27.10
9740;BME280;4909;42.680;26.324;2024-03-23T06:44:40;98729.78;;;22.31;26.91
9740;BME280;4909;42.680;26.324;2024-03-23T06:47:06;98732.63;;;23.35;25.35
9740;BME280;4909;42.680;26.324;2024-03-23T06:49:33;98739.31;;;23.50;25.45
9740;BME280;4909;42.680;26.324;2024-03-23T06:51:59;98744.97;;;24.58;24.33
9740;BME280;4909;42.680;26.324;2024-03-23T06:54:26;98729.69;;;24.02;24.50
9740;BME280;4909;42.680;26.324;2024-03-23T06:56:52;98735.66;;;23.78;24.95
9740;BME280;4909;42.680;26.324;2024-03-23T06:59:20;98744.97;;;24.03;24.48
9740;BME280;4909;42.680;26.324;2024-03-23T07:01:46;98748.75;;;24.92;23.59
9740;BME280;4909;42.680;26.324;2024-03-23T07:04:13;98749.03;;;23.90;24.51
9740;BME280;4909;42.680;26.324;2024-03-23T07:06:42;98734.03;;;24.67;23.40
9740;BME280;4909;42.680;26.324;2024-03-23T07:09:10;98744.25;;;24.38;23.75
9740;BME280;4909;42.680;26.324;2024-03-23T07:11:36;98752.94;;;24.59;23.48
9740;BME280;4909;42.680;26.324;2024-03-23T07:14:03;98736.00;;;24.93;23.22
9740;BME280;4909;42.680;26.324;2024-03-23T07:16:31;98731.31;;;25.64;22.55
9740;BME280;4909;42.680;26.324;2024-03-23T07:18:58;98724.03;;;26.49;21.05
9740;BME280;4909;42.680;26.324;2024-03-23T07:21:24;98713.13;;;26.41;21.23
9740;BME280;4909;42.680;26.324;2024-03-23T07:23:51;98713.38;;;27.36;20.42
9740;BME280;4909;42.680;26.324;2024-03-23T07:26:17;98708.09;;;27.67;20.23
9740;BME280;4909;42.680;26.324;2024-03-23T07:28:44;98705.16;;;26.63;20.37
9740;BME280;4909;42.680;26.324;2024-03-23T07:31:12;98703.03;;;27.23;20.11
9740;BME280;4909;42.680;26.324;2024-03-23T07:33:45;98707.31;;;27.97;19.58
9740;BME280;4909;42.680;26.324;2024-03-23T07:36:12;98708.69;;;27.85;19.48
9740;BME280;4909;42.680;26.324;2024-03-23T07:38:40;98704.91;;;28.02;19.31
9740;BME280;4909;42.680;26.324;2024-03-23T07:41:07;98696.34;;;27.42;20.03
9740;BME280;4909;42.680;26.324;2024-03-23T07:43:34;98701.44;;;26.14;21.40
9740;BME280;4909;42.680;26.324;2024-03-23T07:46:00;98701.28;;;26.66;21.03
9740;BME280;4909;42.680;26.324;2024-03-23T07:48:29;98696.50;;;26.52;21.10
9740;BME280;4909;42.680;26.324;2024-03-23T07:51:00;98648.13;;;26.21;20.86
9740;BME280;4909;42.680;26.324;2024-03-23T07:53:28;98689.78;;;26.22;21.60
9740;BME280;4909;42.680;26.324;2024-03-23T07:55:55;98684.94;;;26.00;21.96
9740;BME280;4909;42.680;26.324;2024-03-23T07:58:22;98685.28;;;26.79;21.19
9740;BME280;4909;42.680;26.324;2024-03-23T08:00:48;98692.31;;;27.06;21.02
9740;BME280;4909;42.680;26.324;2024-03-23T08:03:15;98683.25;;;27.30;20.58
9740;BME280;4909;42.680;26.324;2024-03-23T08:05:41;98681.78;;;27.82;20.34
9740;BME280;4909;42.680;26.324;2024-03-23T08:08:10;98687.06;;;28.31;20.10
9740;BME280;4909;42.680;26.324;2024-03-23T08:10:36;98680.44;;;29.02;19.40
9740;BME280;4909;42.680;26.324;2024-03-23T08:13:04;98684.63;;;29.79;18.84
9740;BME280;4909;42.680;26.324;2024-03-23T08:15:30;98673.75;;;29.04;19.15
9740;BME280;4909;42.680;26.324;2024-03-23T08:18:00;98680.28;;;29.55;18.45
9740;BME280;4909;42.680;26.324;2024-03-23T08:20:25;98683.16;;;29.02;19.27
9740;BME280;4909;42.680;26.324;2024-03-23T08:22:52;98678.25;;;28.97;19.34
9740;BME280;4909;42.680;26.324;2024-03-23T08:25:20;98679.81;;;29.66;18.95
9740;BME280;4909;42.680;26.324;2024-03-23T08:27:47;98667.94;;;29.89;18.52
9740;BME280;4909;42.680;26.324;2024-03-23T08:30:13;98677.00;;;29.22;19.20
9740;BME280;4909;42.680;26.324;2024-03-23T08:32:41;98672.22;;;29.39;19.14
9740;BME280;4909;42.680;26.324;2024-03-23T08:35:08;98678.25;;;30.01;18.98
9740;BME280;4909;42.680;26.324;2024-03-23T08:37:35;98670.19;;;29.85;19.19
9740;BME280;4909;42.680;26.324;2024-03-23T08:40:01;98675.06;;;29.31;19.46
9740;BME280;4909;42.680;26.324;2024-03-23T08:42:31;98658.16;;;29.27;19.95
9740;BME280;4909;42.680;26.324;2024-03-23T08:44:57;98656.41;;;29.49;19.39
9740;BME280;4909;42.680;26.324;2024-03-23T08:47:24;98672.81;;;28.04;20.22
9740;BME280;4909;42.680;26.324;2024-03-23T08:49:50;98668.97;;;27.19;21.50
9740;BME280;4909;42.680;26.324;2024-03-23T08:52:17;98663.84;;;27.16;22.07
9740;BME280;4909;42.680;26.324;2024-03-23T08:54:43;98670.00;;;27.10;21.81
9740;BME280;4909;42.680;26.324;2024-03-23T08:57:11;98666.88;;;26.41;23.16
9740;BME280;4909;42.680;26.324;2024-03-23T08:59:39;98670.66;;;26.80;22.50
9740;BME280;4909;42.680;26.324;2024-03-23T09:02:06;98659.31;;;25.76;23.79
9740;BME280;4909;42.680;26.324;2024-03-23T09:04:32;98650.28;;;25.68;23.48
9740;BME280;4909;42.680;26.324;2024-03-23T09:06:59;98648.88;;;25.38;23.86
9740;BME280;4909;42.680;26.324;2024-03-23T09:09:25;98648.09;;;25.45;24.18
9740;BME280;4909;42.680;26.324;2024-03-23T09:11:52;98646.28;;;25.28;24.06
9740;BME280;4909;42.680;26.324;2024-03-23T09:14:18;98639.75;;;24.87;24.58
9740;BME280;4909;42.680;26.324;2024-03-23T09:16:49;98635.78;;;24.64;25.72
9740;BME280;4909;42.680;26.324;2024-03-23T09:19:16;98640.75;;;24.33;25.38
9740;BME280;4909;42.680;26.324;2024-03-23T09:21:43;98629.28;;;23.76;26.07
9740;BME280;4909;42.680;26.324;2024-03-23T09:24:09;98636.19;;;23.61;26.59
9740;BME280;4909;42.680;26.324;2024-03-23T09:26:36;98630.59;;;23.26;26.92
9740;BME280;4909;42.680;26.324;2024-03-23T09:29:02;98619.34;;;22.45;27.42
9740;BME280;4909;42.680;26.324;2024-03-23T09:31:29;98620.03;;;22.28;28.27
9740;BME280;4909;42.680;26.324;2024-03-23T09:33:58;98620.44;;;21.95;28.51
9740;BME280;4909;42.680;26.324;2024-03-23T09:36:25;98613.94;;;22.17;27.95
9740;BME280;4909;42.680;26.324;2024-03-23T09:38:51;98605.50;;;21.51;28.41
9740;BME280;4909;42.680;26.324;2024-03-23T09:41:18;98608.38;;;20.98;29.23
9740;BME280;4909;42.680;26.324;2024-03-23T09:43:44;98613.50;;;20.39;30.30
9740;BME280;4909;42.680;26.324;2024-03-23T09:46:14;98605.47;;;19.96;30.51
9740;BME280;4909;42.680;26.324;2024-03-23T09:48:40;98600.50;;;20.12;30.37
9740;BME280;4909;42.680;26.324;2024-03-23T09:51:08;98581.13;;;20.18;30.45
9740;BME280;4909;42.680;26.324;2024-03-23T09:53:35;98574.88;;;20.50;30.12
9740;BME280;4909;42.680;26.324;2024-03-23T09:56:03;98573.63;;;20.22;31.77
9740;BME280;4909;42.680;26.324;2024-03-23T09:58:29;98582.47;;;19.81;32.25
9740;BME280;4909;42.680;26.324;2024-03-23T10:00:57;98575.53;;;19.78;32.66
9740;BME280;4909;42.680;26.324;2024-03-23T10:03:23;98567.44;;;20.10;31.10
9740;BME280;4909;42.680;26.324;2024-03-23T10:06:00;98557.22;;;19.93;30.40
9740;BME280;4909;42.680;26.324;2024-03-23T10:08:29;98572.66;;;19.91;29.90
9740;BME280;4909;42.680;26.324;2024-03-23T10:10:56;98554.03;;;19.99;31.16
9740;BME280;4909;42.680;26.324;2024-03-23T10:13:26;98554.47;;;19.83;31.63
9740;BME280;4909;42.680;26.324;2024-03-23T10:15:56;98554.66;;;19.60;31.81
9740;BME280;4909;42.680;26.324;2024-03-23T10:18:23;98553.72;;;18.94;32.46
9740;BME280;4909;42.680;26.324;2024-03-23T10:20:52;98547.50;;;18.82;33.02
9740;BME280;4909;42.680;26.324;2024-03-23T10:23:23;98551.53;;;19.21;33.26
9740;BME280;4909;42.680;26.324;2024-03-23T10:25:52;98543.88;;;19.60;32.88
9740;BME280;4909;42.680;26.324;2024-03-23T10:28:18;98539.41;;;19.16;32.67
9740;BME280;4909;42.680;26.324;2024-03-23T10:30:44;98540.13;;;19.29;32.56
9740;BME280;4909;42.680;26.324;2024-03-23T10:33:11;98526.53;;;19.30;32.01
9740;BME280;4909;42.680;26.324;2024-03-23T10:35:40;98520.72;;;18.92;32.79
9740;BME280;4909;42.680;26.324;2024-03-23T10:38:07;98520.47;;;18.73;32.99
9740;BME280;4909;42.680;26.324;2024-03-23T10:40:34;98513.63;;;19.02;32.75
9740;BME280;4909;42.680;26.324;2024-03-23T10:43:03;98521.78;;;19.23;31.87
9740;BME280;4909;42.680;26.324;2024-03-23T10:45:30;98515.78;;;19.30;33.27
9740;BME280;4909;42.680;26.324;2024-03-23T10:47:56;98492.66;;;19.28;32.31
9740;BME280;4909;42.680;26.324;2024-03-23T10:50:23;98516.66;;;19.20;33.47
9740;BME280;4909;42.680;26.324;2024-03-23T10:52:49;98504.16;;;19.30;32.09
9740;BME280;4909;42.680;26.324;2024-03-23T10:55:22;98494.59;;;19.48;30.61
9740;BME280;4909;42.680;26.324;2024-03-23T10:57:51;98483.25;;;19.22;31.12
9740;BME280;4909;42.680;26.324;2024-03-23T11:00:21;98479.19;;;19.39;31.75
9740;BME280;4909;42.680;26.324;2024-03-23T11:02:49;98478.53;;;19.58;31.23
9740;BME280;4909;42.680;26.324;2024-03-23T11:05:29;98482.69;;;18.96;30.84
9740;BME280;4909;42.680;26.324;2024-03-23T11:07:55;98485.38;;;18.96;31.04
9740;BME280;4909;42.680;26.324;2024-03-23T11:10:26;98477.16;;;19.20;27.55
9740;BME280;4909;42.680;26.324;2024-03-23T11:12:54;98476.03;;;19.45;28.01
9740;BME280;4909;42.680;26.324;2024-03-23T11:15:23;98460.34;;;19.71;29.57
9740;BME280;4909;42.680;26.324;2024-03-23T11:18:03;98460.41;;;19.17;28.90
9740;BME280;4909;42.680;26.324;2024-03-23T11:20:34;98450.72;;;19.25;29.23
9740;BME280;4909;42.680;26.324;2024-03-23T11:23:00;98447.28;;;19.23;28.63
9740;BME280;4909;42.680;26.324;2024-03-23T11:25:28;98449.47;;;18.86;29.27
9740;BME280;4909;42.680;26.324;2024-03-23T11:27:56;98449.34;;;18.88;29.46
9740;BME280;4909;42.680;26.324;2024-03-23T11:30:26;98441.00;;;19.02;28.48
9740;BME280;4909;42.680;26.324;2024-03-23T11:32:53;98444.69;;;18.90;27.94
9740;BME280;4909;42.680;26.324;2024-03-23T11:35:28;98425.09;;;18.99;28.03
9740;BME280;4909;42.680;26.324;2024-03-23T11:38:04;98427.38;;;19.15;27.66
9740;BME280;4909;42.680;26.324;2024-03-23T11:40:31;98419.50;;;19.45;27.21
9740;BME280;4909;42.680;26.324;2024-03-23T11:43:00;98418.66;;;19.65;27.69
9740;BME280;4909;42.680;26.324;2024-03-23T11:45:34;98411.09;;;19.59;28.37
9740;BME280;4909;42.680;26.324;2024-03-23T11:48:08;98395.34;;;19.43;28.20
9740;BME280;4909;42.680;26.324;2024-03-23T11:50:38;98396.44;;;18.77;28.80
9740;BME280;4909;42.680;26.324;2024-03-23T11:53:07;98406.06;;;18.46;29.11
9740;BME280;4909;42.680;26.324;2024-03-23T11:55:42;98404.63;;;18.76;28.46
9740;BME280;4909;42.680;26.324;2024-03-23T11:58:08;98397.88;;;18.92;28.32
9740;BME280;4909;42.680;26.324;2024-03-23T12:00:37;98393.38;;;19.14;28.46
9740;BME280;4909;42.680;26.324;2024-03-23T12:03:04;98380.13;;;18.90;28.28
9740;BME280;4909;42.680;26.324;2024-03-23T12:05:31;98378.94;;;18.83;28.63
9740;BME280;4909;42.680;26.324;2024-03-23T12:08:15;98385.91;;;18.52;28.71
9740;BME280;4909;42.680;26.324;2024-03-23T12:10:44;98372.47;;;17.96;29.25
9740;BME280;4909;42.680;26.324;2024-03-23T12:13:15;98381.53;;;17.95;29.42
9740;BME280;4909;42.680;26.324;2024-03-23T12:15:44;98354.56;;;18.19;29.76
9740;BME280;4909;42.680;26.324;2024-03-23T12:18:11;98369.78;;;18.52;29.06
9740;BME280;4909;42.680;26.324;2024-03-23T12:20:38;98357.72;;;18.57;29.28
9740;BME280;4909;42.680;26.324;2024-03-23T12:23:06;98348.34;;;18.95;28.59
9740;BME280;4909;42.680;26.324;2024-03-23T12:25:34;98322.41;;;18.51;28.71
9740;BME280;4909;42.680;26.324;2024-03-23T12:28:00;98364.06;;;18.67;28.16
9740;BME280;4909;42.680;26.324;2024-03-23T12:30:27;98359.03;;;18.74;28.15
9740;BME280;4909;42.680;26.324;2024-03-23T12:32:55;98348.81;;;18.68;27.40
9740;BME280;4909;42.680;26.324;2024-03-23T12:35:22;98348.13;;;18.87;27.21
9740;BME280;4909;42.680;26.324;2024-03-23T12:37:48;98337.94;;;18.58;27.27
9740;BME280;4909;42.680;26.324;2024-03-23T12:40:15;98344.88;;;18.72;28.38
9740;BME280;4909;42.680;26.324;2024-03-23T12:42:41;98331.44;;;18.61;29.66
9740;BME280;4909;42.680;26.324;2024-03-23T12:45:08;98336.19;;;18.46;29.88
9740;BME280;4909;42.680;26.324;2024-03-23T12:47:34;98329.13;;;18.67;29.57
9740;BME280;4909;42.680;26.324;2024-03-23T12:50:03;98310.31;;;18.56;29.37
9740;BME280;4909;42.680;26.324;2024-03-23T12:52:29;98320.81;;;18.59;28.72
9740;BME280;4909;42.680;26.324;2024-03-23T12:54:56;98322.66;;;18.37;29.31
9740;BME280;4909;42.680;26.324;2024-03-23T12:57:23;98315.19;;;18.62;29.31
9740;BME280;4909;42.680;26.324;2024-03-23T12:59:51;98314.31;;;18.73;29.48
9740;BME280;4909;42.680;26.324;2024-03-23T13:02:19;98309.84;;;18.94;28.61
9740;BME280;4909;42.680;26.324;2024-03-23T13:04:48;98298.53;;;18.80;28.35
9740;BME280;4909;42.680;26.324;2024-03-23T13:07:16;98301.09;;;18.81;29.04
9740;BME280;4909;42.680;26.324;2024-03-23T13:09:43;98293.91;;;18.71;29.57
9740;BME280;4909;42.680;26.324;2024-03-23T13:12:09;98301.00;;;18.72;29.81
9740;BME280;4909;42.680;26.324;2024-03-23T13:14:37;98304.56;;;18.61;29.45
9740;BME280;4909;42.680;26.324;2024-03-23T13:17:04;98296.38;;;18.40;29.31
9740;BME280;4909;42.680;26.324;2024-03-23T13:19:31;98296.28;;;18.42;29.42
9740;BME280;4909;42.680;26.324;2024-03-23T13:21:57;98297.88;;;18.33;29.67
9740;BME280;4909;42.680;26.324;2024-03-23T13:24:27;98291.16;;;18.39;30.13
9740;BME280;4909;42.680;26.324;2024-03-23T13:26:54;98279.38;;;18.51;29.49
9740;BME280;4909;42.680;26.324;2024-03-23T13:29:22;98279.06;;;18.44;28.42
9740;BME280;4909;42.680;26.324;2024-03-23T13:31:48;98270.22;;;18.64;28.25
9740;BME280;4909;42.680;26.324;2024-03-23T13:34:16;98275.84;;;18.61;28.16
9740;BME280;4909;42.680;26.324;2024-03-23T13:36:43;98271.31;;;18.51;28.11
9740;BME280;4909;42.680;26.324;2024-03-23T13:39:10;98257.19;;;18.49;27.58
9740;BME280;4909;42.680;26.324;2024-03-23T13:41:39;98272.72;;;18.34;28.05
9740;BME280;4909;42.680;26.324;2024-03-23T13:44:06;98262.41;;;18.50;27.49
9740;BME280;4909;42.680;26.324;2024-03-23T13:46:32;98262.28;;;18.52;27.64
9740;BME280;4909;42.680;26.324;2024-03-23T13:49:00;98267.94;;;18.49;27.87
9740;BME280;4909;42.680;26.324;2024-03-23T13:51:26;98257.41;;;18.46;28.15
9740;BME280;4909;42.680;26.324;2024-03-23T13:53:53;98265.97;;;18.40;28.70
9740;BME280;4909;42.680;26.324;2024-03-23T13:56:20;98260.91;;;18.14;28.27
9740;BME280;4909;42.680;26.324;2024-03-23T13:58:48;98256.41;;;18.15;28.59
9740;BME280;4909;42.680;26.324;2024-03-23T14:01:14;98264.09;;;18.08;29.50
9740;BME280;4909;42.680;26.324;2024-03-23T14:03:42;98239.56;;;18.02;29.36
9740;BME280;4909;42.680;26.324;2024-03-23T14:06:08;98243.84;;;17.93;29.04
9740;BME280;4909;42.680;26.324;2024-03-23T14:08:36;98228.97;;;17.89;29.17